Time;durP1;ratioP1;P1;durP2;ratioP2;P2;SDS_P1;SDS_P2;PMS_P1;PMS_P2;Temp;Humidity;BMP_temperature;BMP_pressure;BME280_temperature;BME280_humidity;BME280_pressure;Samples;Min_cycle;Max_cycle;Signal;HPM_P1;HPM_P2
2022/06/12 00:01:57;;;;;;;8.95;7.15;;;14.10;99.90;;;;;;4957684;29;20023;-78
2022/06/12 00:04:24;;;;;;;8.98;8.18;;;14.10;99.90;;;;;;4957943;29;20106;-77
2022/06/12 00:06:50;;;;;;;10.07;7.32;;;14.10;99.90;;;;;;4940678;29;20039;-77
2022/06/12 00:09:16;;;;;;;10.25;8.07;;;14.10;99.90;;;;;;4940488;29;20031;-77
2022/06/12 00:11:44;;;;;;;9.38;7.47;;;14.10;99.90;;;;;;4958047;29;20027;-78
2022/06/12 00:14:11;;;;;;;8.70;7.78;;;14.00;99.90;;;;;;4940695;29;20454;-78
2022/06/12 00:16:40;;;;;;;7.78;6.97;;;14.00;99.90;;;;;;4940400;29;20043;-77
2022/06/12 00:19:07;;;;;;;7.63;6.95;;;13.90;99.90;;;;;;4957676;29;20031;-77
2022/06/12 00:21:33;;;;;;;9.68;7.50;;;13.90;99.90;;;;;;4940408;29;20031;-77
2022/06/12 00:24:09;;;;;;;8.18;7.38;;;13.90;99.90;;;;;;4957219;28;20031;-77
2022/06/12 00:26:39;;;;;;;12.05;7.63;;;13.80;99.90;;;;;;4957363;29;20047;-77
2022/06/12 00:29:12;;;;;;;8.20;7.38;;;13.80;99.90;;;;;;4940140;29;20085;-78
2022/06/12 00:31:43;;;;;;;8.15;7.25;;;13.80;99.90;;;;;;4957469;29;20027;-77
2022/06/12 00:34:10;;;;;;;8.63;7.82;;;13.80;99.90;;;;;;4940375;29;20357;-78
2022/06/12 00:36:36;;;;;;;8.20;7.50;;;13.70;99.90;;;;;;4939974;29;20541;-78
2022/06/12 00:39:04;;;;;;;8.82;7.75;;;13.70;99.90;;;;;;4940075;29;20110;-78
2022/06/12 00:41:29;;;;;;;8.52;7.47;;;13.70;99.90;;;;;;4957271;29;20028;-78
2022/06/12 00:43:56;;;;;;;8.80;7.45;;;13.60;99.90;;;;;;4957610;29;20040;-78
2022/06/12 00:46:43;;;;;;;7.93;7.22;;;13.60;99.90;;;;;;4939920;29;20034;-78
2022/06/12 00:49:19;;;;;;;7.40;6.70;;;13.60;99.90;;;;;;4957159;29;20030;-78
2022/06/12 00:51:48;;;;;;;10.65;7.60;;;13.60;99.90;;;;;;4940471;29;20487;-78
2022/06/12 00:54:14;;;;;;;;;;;13.60;99.90;;;;;;4957699;29;20023;-78
2022/06/12 00:56:47;;;;;;;10.93;7.85;;;13.60;99.90;;;;;;4940176;29;19937;-77
2022/06/12 00:59:19;;;;;;;9.73;7.63;;;13.50;99.90;;;;;;4957225;29;20472;-77
2022/06/12 01:01:49;;;;;;;8.68;7.85;;;13.50;99.90;;;;;;4939799;29;20031;-77
2022/06/12 01:07:05;;;;;;;7.82;7.03;;;13.50;99.90;;;;;;4956842;29;20038;-77
2022/06/12 01:09:38;;;;;;;8.75;7.85;;;13.40;99.90;;;;;;4956863;29;20540;-77
2022/06/12 01:12:06;;;;;;;9.07;7.35;;;13.40;99.90;;;;;;4939501;29;20023;-77
2022/06/12 01:14:37;;;;;;;11.05;8.48;;;13.40;99.90;;;;;;4939534;29;20114;-77
2022/06/12 01:17:05;;;;;;;8.18;7.40;;;13.40;99.90;;;;;;4939555;29;20040;-77
2022/06/12 01:19:53;;;;;;;8.98;7.82;;;13.30;99.90;;;;;;4939351;29;20031;-77
2022/06/12 01:22:37;;;;;;;9.35;8.35;;;13.30;99.90;;;;;;4956579;29;20027;-77
2022/06/12 01:25:36;;;;;;;8.18;7.43;;;13.30;99.90;;;;;;4956599;29;20122;-77
2022/06/12 01:28:05;;;;;;;9.73;7.20;;;13.20;99.90;;;;;;4956480;29;20042;-78
2022/06/12 01:30:56;;;;;;;9.35;7.45;;;13.20;99.90;;;;;;4939416;29;20023;-77
2022/06/12 01:33:44;;;;;;;9.18;7.78;;;13.20;99.90;;;;;;4956419;29;20066;-77
2022/06/12 01:36:29;;;;;;;8.50;7.40;;;13.20;99.90;;;;;;4938106;29;20034;-78
2022/06/12 01:39:29;;;;;;;10.45;7.55;;;13.20;99.90;;;;;;4939061;29;20432;-77
2022/06/12 01:42:17;;;;;;;8.05;7.22;;;13.20;99.90;;;;;;4938897;29;20387;-78
2022/06/12 01:45:20;;;;;;;15.95;8.05;;;13.20;99.90;;;;;;4938871;29;20379;-78
2022/06/12 01:48:04;;;;;;;9.38;7.35;;;13.10;99.90;;;;;;4956096;29;20119;-78
2022/06/12 01:51:02;;;;;;;8.63;7.35;;;13.00;99.90;;;;;;4956070;29;20083;-78
2022/06/12 01:54:00;;;;;;;5.65;5.15;;;13.00;99.90;;;;;;4952070;29;20039;-77
2022/06/12 01:56:44;;;;;;;8.48;7.75;;;13.00;99.90;;;;;;4897014;29;20125;-77
2022/06/12 01:59:19;;;;;;;9.25;7.30;;;13.00;99.90;;;;;;4955728;29;20034;-77
2022/06/12 02:01:54;;;;;;;11.55;7.32;;;12.90;99.90;;;;;;4955961;29;20214;-77
2022/06/12 02:04:47;;;;;;;8.85;7.93;;;12.90;99.90;;;;;;4956058;29;20031;-77
2022/06/12 02:07:28;;;;;;;8.18;7.47;;;12.90;99.90;;;;;;4939130;29;20402;-77
2022/06/12 02:10:29;;;;;;;10.25;7.53;;;12.90;99.90;;;;;;4955995;29;20027;-77
2022/06/12 02:13:12;;;;;;;9.68;7.43;;;12.90;99.90;;;;;;4896741;29;20039;-77
2022/06/12 02:15:44;;;;;;;9.13;7.80;;;12.80;99.90;;;;;;4938671;29;20031;-77
2022/06/12 02:18:39;;;;;;;10.00;7.40;;;12.80;99.90;;;;;;4955641;29;20038;-77
2022/06/12 02:21:23;;;;;;;10.80;7.18;;;12.70;99.90;;;;;;4927929;29;20035;-77
2022/06/12 02:23:58;;;;;;;10.77;7.88;;;12.70;99.90;;;;;;4955463;29;20102;-77
2022/06/12 02:26:28;;;;;;;13.25;8.50;;;12.70;99.90;;;;;;4955688;29;20059;-77
2022/06/12 02:29:01;;;;;;;8.00;7.28;;;12.60;99.90;;;;;;4955775;29;20051;-77
2022/06/12 02:31:34;;;;;;;8.73;7.82;;;12.60;99.90;;;;;;4955558;29;20051;-77
2022/06/12 02:34:06;;;;;;;8.68;7.80;;;12.60;99.90;;;;;;4955703;29;20087;-77
2022/06/12 02:36:37;;;;;;;11.23;7.93;;;12.60;99.90;;;;;;4938761;29;20034;-77
2022/06/12 02:39:32;;;;;;;8.88;8.07;;;12.50;99.90;;;;;;4938351;29;20526;-77
2022/06/12 02:42:23;;;;;;;8.23;7.25;;;12.50;99.90;;;;;;4936190;29;20443;-77
2022/06/12 02:44:53;;;;;;;8.05;7.25;;;12.50;99.90;;;;;;4946652;29;20431;-77
2022/06/12 02:47:23;;;;;;;8.90;8.00;;;12.50;99.90;;;;;;4938618;29;20086;-77
2022/06/12 02:49:51;;;;;;;8.98;7.75;;;12.50;99.90;;;;;;4959800;29;20498;-77
2022/06/12 02:52:41;;;;;;;7.93;7.05;;;12.50;99.90;;;;;;4959277;29;20093;-77
2022/06/12 02:55:10;;;;;;;9.45;7.90;;;12.40;99.90;;;;;;4959030;29;20392;-77
2022/06/12 02:58:01;;;;;;;13.50;7.65;;;12.50;99.90;;;;;;4958875;29;20527;-77
2022/06/12 03:00:52;;;;;;;8.63;7.72;;;12.40;99.90;;;;;;4937637;29;20039;-76
2022/06/12 03:03:41;;;;;;;8.20;7.40;;;12.40;99.90;;;;;;4959227;29;20028;-76
2022/06/12 03:06:07;;;;;;;9.98;8.98;;;12.40;99.90;;;;;;4941984;29;20070;-76
2022/06/12 03:08:38;;;;;;;8.82;7.55;;;12.40;99.90;;;;;;4958908;29;20036;-76
2022/06/12 03:11:14;;;;;;;8.88;7.63;;;12.40;99.90;;;;;;4941764;29;20416;-76
2022/06/12 03:13:40;;;;;;;9.50;7.60;;;12.40;99.90;;;;;;4958915;29;20379;-76
2022/06/12 03:16:10;;;;;;;8.38;7.57;;;12.40;99.90;;;;;;4958790;29;20503;-77
2022/06/12 03:18:41;;;;;;;11.95;8.07;;;12.40;99.90;;;;;;4958801;29;20037;-76
2022/06/12 03:21:17;;;;;;;8.05;7.35;;;12.40;99.90;;;;;;4941497;29;20027;-77
2022/06/12 03:23:58;;;;;;;8.68;7.85;;;12.40;99.90;;;;;;4958928;29;20123;-76
2022/06/12 03:26:46;;;;;;;8.23;7.43;;;12.40;99.90;;;;;;4938136;29;20044;-76
2022/06/12 03:29:46;;;;;;;8.52;7.50;;;12.50;99.90;;;;;;4939251;29;20039;-77
2022/06/12 03:32:32;;;;;;;8.00;7.20;;;12.50;99.90;;;;;;4939464;29;20067;-77
2022/06/12 03:35:07;;;;;;;8.13;7.40;;;12.50;99.90;;;;;;4939384;29;20491;-77
2022/06/12 03:37:49;;;;;;;8.13;7.35;;;12.60;99.90;;;;;;4938123;29;20036;-77
2022/06/12 03:40:18;;;;;;;7.97;7.18;;;12.60;99.90;;;;;;4939256;29;20028;-77
2022/06/12 03:43:12;;;;;;;8.07;7.13;;;12.70;99.90;;;;;;4939488;29;20038;-77
2022/06/12 03:45:53;;;;;;;8.40;7.35;;;12.70;99.90;;;;;;4927301;29;20472;-77
2022/06/12 03:48:54;;;;;;;7.05;6.35;;;12.70;99.90;;;;;;4939137;29;20055;-77
2022/06/12 03:51:38;;;;;;;8.13;7.35;;;12.80;99.90;;;;;;4916763;29;20449;-78
2022/06/12 03:54:22;;;;;;;7.20;6.60;;;12.80;99.90;;;;;;4939392;29;20020;-77
2022/06/12 04:00:06;;;;;;;10.35;6.40;;;13.00;99.90;;;;;;4937873;29;20042;-78
2022/06/12 04:02:33;;;;;;;7.82;6.78;;;13.00;99.90;;;;;;4939249;29;20450;-77
2022/06/12 04:05:01;;;;;;;6.97;6.22;;;13.10;99.90;;;;;;4937505;29;20051;-77
2022/06/12 04:07:29;;;;;;;6.93;6.00;;;13.20;99.90;;;;;;4938740;29;20042;-77
2022/06/12 04:10:02;;;;;;;6.75;6.15;;;13.20;99.90;;;;;;4937536;29;20042;-76
2022/06/12 04:12:31;;;;;;;8.20;6.57;;;13.30;99.90;;;;;;4937442;29;20036;-77
2022/06/12 04:15:18;;;;;;;6.88;6.22;;;13.30;99.90;;;;;;4937366;29;20078;-77
2022/06/12 04:17:44;;;;;;;6.90;6.18;;;13.40;99.90;;;;;;4937247;29;20028;-77
2022/06/12 04:20:20;;;;;;;6.35;5.75;;;13.50;99.90;;;;;;4938383;29;20032;-77
2022/06/12 04:22:59;;;;;;;7.55;6.18;;;13.50;99.90;;;;;;4937555;29;20361;-77
2022/06/12 04:25:49;;;;;;;7.32;6.18;;;13.60;99.90;;;;;;4946708;29;20054;-77
2022/06/12 04:28:37;;;;;;;7.35;5.90;;;13.60;99.90;;;;;;4957679;29;20035;-77
2022/06/12 04:31:08;;;;;;;6.43;5.53;;;13.70;99.90;;;;;;4957618;29;20054;-78
2022/06/12 04:33:56;;;;;;;6.05;5.45;;;13.80;99.90;;;;;;4950089;29;20023;-78
2022/06/12 04:36:22;;;;;;;7.20;5.25;;;13.90;99.90;;;;;;4957656;29;20038;-78
2022/06/12 04:38:48;;;;;;;5.75;5.13;;;14.00;99.90;;;;;;4957596;29;20031;-78
2022/06/12 04:41:25;;;;;;;5.82;5.28;;;14.10;99.90;;;;;;4940119;29;20122;-78
2022/06/12 04:43:51;;;;;;;8.63;5.82;;;14.20;99.90;;;;;;4940885;29;20423;-78
2022/06/12 04:46:17;;;;;;;5.60;4.93;;;14.30;99.90;;;;;;4939961;29;20027;-78
2022/06/12 04:48:45;;;;;;;5.18;4.65;;;14.40;99.90;;;;;;4957159;29;20031;-78
2022/06/12 04:51:12;;;;;;;5.38;4.88;;;14.50;99.90;;;;;;4940001;29;20035;-78
2022/06/12 04:53:40;;;;;;;5.15;4.65;;;14.60;99.90;;;;;;4940124;29;20041;-78
2022/06/12 04:56:07;;;;;;;5.05;4.45;;;14.70;99.90;;;;;;4956988;29;20038;-78
2022/06/12 04:58:32;;;;;;;5.15;4.18;;;14.80;99.90;;;;;;4956890;29;20093;-78
2022/06/12 05:00:58;;;;;;;5.15;4.65;;;15.00;99.90;;;;;;4939691;29;20027;-78
2022/06/12 05:03:24;;;;;;;6.15;4.70;;;15.10;99.90;;;;;;4939744;29;20031;-78
2022/06/12 05:05:50;;;;;;;5.45;4.95;;;15.20;99.90;;;;;;4939616;29;20038;-78
2022/06/12 05:08:17;;;;;;;5.57;4.22;;;15.40;99.90;;;;;;4956798;29;20246;-78
2022/06/12 05:10:45;;;;;;;8.45;4.40;;;15.50;99.90;;;;;;4939490;29;20038;-78
2022/06/12 05:13:10;;;;;;;4.43;3.85;;;15.70;99.90;;;;;;4939501;29;20031;-78
2022/06/12 05:15:36;;;;;;;4.22;3.85;;;15.70;99.90;;;;;;4939513;29;20365;-79
2022/06/12 05:18:02;;;;;;;4.38;3.97;;;15.90;99.90;;;;;;4956896;29;20348;-78
2022/06/12 05:20:30;;;;;;;5.75;3.55;;;16.00;99.90;;;;;;4956511;29;20467;-78
2022/06/12 05:22:56;;;;;;;4.15;3.30;;;16.20;99.90;;;;;;4956296;29;20059;-78
2022/06/12 05:25:23;;;;;;;4.15;3.60;;;16.30;99.90;;;;;;4939606;29;20055;-85
2022/06/12 05:27:50;;;;;;;3.72;3.42;;;16.50;99.90;;;;;;4957158;29;20039;-87
2022/06/12 05:30:19;;;;;;;4.20;3.17;;;16.60;99.90;;;;;;4957681;29;20061;-91
2022/06/12 05:32:47;;;;;;;3.28;2.97;;;16.80;99.90;;;;;;4940084;29;20122;-79
2022/06/12 05:35:13;;;;;;;4.90;3.22;;;16.90;99.90;;;;;;4956332;29;20031;-77
2022/06/12 05:37:39;;;;;;;22.15;4.13;;;17.10;99.90;;;;;;4956179;29;20087;-81
2022/06/12 05:40:10;;;;;;;4.47;3.13;;;17.30;99.90;;;;;;4939065;29;20475;-76
2022/06/12 05:42:37;;;;;;;3.30;3.10;;;17.40;99.90;;;;;;4956229;29;20030;-77
2022/06/12 05:45:05;;;;;;;2.83;2.63;;;17.60;99.90;;;;;;4956463;29;20031;-86
2022/06/12 05:47:30;;;;;;;5.47;2.97;;;17.70;99.90;;;;;;4939049;29;20039;-79
2022/06/12 05:49:56;;;;;;;3.33;2.75;;;17.90;99.90;;;;;;4939150;29;20126;-80
2022/06/12 05:52:21;;;;;;;2.55;2.35;;;18.00;99.90;;;;;;4938999;29;20031;-81
2022/06/12 05:54:47;;;;;;;4.43;2.65;;;18.20;99.90;;;;;;4956134;29;20027;-81
2022/06/12 05:57:13;;;;;;;3.97;2.45;;;18.30;99.90;;;;;;4956420;29;20031;-81
2022/06/12 05:59:39;;;;;;;7.15;3.45;;;18.50;99.90;;;;;;4938862;29;20034;-80
2022/06/12 06:02:05;;;;;;;4.50;3.38;;;18.60;99.90;;;;;;4938803;29;20031;-80
2022/06/12 06:04:30;;;;;;;5.57;2.45;;;18.80;99.90;;;;;;4939025;29;20055;-83
2022/06/12 06:07:00;;;;;;;2.60;2.40;;;19.00;99.90;;;;;;4956252;29;20090;-84
2022/06/12 06:09:27;;;;;;;2.60;2.40;;;19.20;99.90;;;;;;4939320;29;20023;-85
2022/06/12 06:11:54;;;;;;;2.60;2.10;;;19.40;99.90;;;;;;4956207;29;20107;-85
2022/06/12 06:14:21;;;;;;;6.13;2.20;;;19.50;99.90;;;;;;4956013;29;20063;-59
2022/06/12 06:16:46;;;;;;;2.42;2.22;;;19.70;99.90;;;;;;4938501;29;20042;-59
2022/06/12 06:19:14;;;;;;;3.40;1.95;;;20.10;99.90;;;;;;4938475;29;20032;-59
2022/06/12 06:21:40;;;;;;;3.53;2.05;;;20.70;99.90;;;;;;4955454;29;20027;-59
2022/06/12 06:24:09;;;;;;;1.95;1.73;;;21.30;99.90;;;;;;4955035;29;20360;-59
2022/06/12 06:26:35;;;;;;;2.10;1.90;;;21.70;99.90;;;;;;4955222;29;20047;-59
2022/06/12 06:29:01;;;;;;;4.32;2.03;;;22.10;99.90;;;;;;4955668;29;20023;-59
2022/06/12 06:31:27;;;;;;;3.47;2.03;;;22.40;99.90;;;;;;4955420;29;20067;-59
2022/06/12 06:33:54;;;;;;;1.55;1.42;;;22.70;99.90;;;;;;4955725;29;20031;-59
2022/06/12 06:36:20;;;;;;;3.90;1.23;;;22.90;99.90;;;;;;4955352;29;20486;-58
2022/06/12 06:38:50;;;;;;;2.78;1.63;;;23.20;99.90;;;;;;4955459;29;20119;-59
2022/06/12 06:41:15;;;;;;;1.95;1.40;;;23.50;99.90;;;;;;4955694;29;20038;-59
2022/06/12 06:46:25;;;;;;;4.13;1.70;;;24.00;98.40;;;;;;4955545;29;20035;-59
2022/06/12 06:48:52;;;;;;;1.95;1.60;;;24.10;96.10;;;;;;4955438;29;20024;-59
2022/06/12 06:51:17;;;;;;;2.80;1.48;;;24.30;95.80;;;;;;4955351;29;20031;-60
2022/06/12 06:53:43;;;;;;;2.28;1.50;;;24.40;94.60;;;;;;4955677;29;20057;-59
2022/06/12 06:56:09;;;;;;;2.03;1.30;;;24.50;94.10;;;;;;4938260;29;20031;-59
2022/06/12 06:58:35;;;;;;;2.05;1.30;;;24.50;92.10;;;;;;4955304;29;20061;-62
2022/06/12 07:01:02;;;;;;;2.35;1.70;;;24.50;91.60;;;;;;4938083;29;20463;-59
2022/06/12 07:03:29;;;;;;;2.15;1.42;;;24.60;91.00;;;;;;4955338;29;20035;-59
2022/06/12 07:05:55;;;;;;;2.03;1.63;;;24.70;90.40;;;;;;4955335;29;20028;-60
2022/06/12 07:08:23;;;;;;;4.50;1.63;;;24.80;90.40;;;;;;4955358;29;20431;-59
2022/06/12 07:10:49;;;;;;;3.80;1.20;;;25.10;89.50;;;;;;4955194;29;20451;-60
2022/06/12 07:13:15;;;;;;;3.53;1.40;;;25.30;88.40;;;;;;4955174;29;20095;-59
2022/06/12 07:15:41;;;;;;;2.15;1.42;;;25.60;88.30;;;;;;4955307;29;20459;-59
2022/06/12 07:18:08;;;;;;;2.33;1.13;;;25.90;85.20;;;;;;4954827;29;20035;-60
2022/06/12 07:20:37;;;;;;;4.05;1.30;;;26.00;80.60;;;;;;4955377;29;20027;-59
2022/06/12 07:23:05;;;;;;;1.48;1.30;;;26.00;78.60;;;;;;4955140;29;20423;-59
2022/06/12 07:25:37;;;;;;;2.93;1.50;;;25.90;78.90;;;;;;4954690;29;20055;-59
2022/06/12 07:28:03;;;;;;;1.75;1.65;;;25.90;77.70;;;;;;4955092;29;20531;-59
2022/06/12 07:30:28;;;;;;;3.05;1.15;;;25.90;78.10;;;;;;4954723;29;20031;-60
2022/06/12 07:32:54;;;;;;;2.03;1.33;;;26.00;80.90;;;;;;4954812;29;20019;-59
2022/06/12 07:35:20;;;;;;;1.58;1.20;;;26.20;77.20;;;;;;4956754;28;20110;-59
2022/06/12 07:37:47;;;;;;;2.33;1.40;;;26.30;78.00;;;;;;4958102;29;20031;-59
2022/06/12 07:40:18;;;;;;;1.88;1.30;;;26.40;74.90;;;;;;4958357;29;20027;-60
2022/06/12 07:42:44;;;;;;;1.58;1.30;;;26.40;76.30;;;;;;4941546;29;20028;-60
2022/06/12 07:45:10;;;;;;;4.88;1.63;;;26.50;74.90;;;;;;4958120;29;20464;-60
2022/06/12 07:47:36;;;;;;;1.80;1.40;;;26.50;72.00;;;;;;4958173;29;20032;-81
2022/06/12 07:50:03;;;;;;;2.63;1.42;;;26.50;71.00;;;;;;4958267;29;20484;-84
2022/06/12 07:52:29;;;;;;;2.17;1.40;;;26.70;73.00;;;;;;4958554;29;20024;-85
2022/06/12 07:54:56;;;;;;;2.15;1.50;;;27.00;71.70;;;;;;4958192;29;20023;-83
2022/06/12 07:57:21;;;;;;;2.28;1.48;;;27.30;69.90;;;;;;4941020;29;20464;-83
2022/06/12 07:59:47;;;;;;;1.58;1.48;;;27.20;69.30;;;;;;4941013;29;20038;-83
2022/06/12 08:02:13;;;;;;;6.25;1.73;;;27.30;67.30;;;;;;4958146;29;20023;-83
2022/06/12 08:04:38;;;;;;;1.30;1.20;;;27.40;69.00;;;;;;4958115;29;20031;-83
2022/06/12 08:07:04;;;;;;;2.50;1.60;;;27.60;65.50;;;;;;4958248;29;20031;-83
2022/06/12 08:09:30;;;;;;;2.70;1.73;;;28.10;65.60;;;;;;4957897;29;20039;-83
2022/06/12 08:11:56;;;;;;;1.63;1.50;;;28.20;63.90;;;;;;4958031;29;20027;-82
2022/06/12 08:14:23;;;;;;;2.15;1.70;;;28.00;63.90;;;;;;4958041;29;20031;-84
2022/06/12 08:16:49;;;;;;;1.77;1.50;;;28.00;64.80;;;;;;4957893;29;20036;-82
2022/06/12 08:22:01;;;;;;;3.58;1.50;;;28.30;60.80;;;;;;4957965;29;20054;-82
2022/06/12 08:24:26;;;;;;;1.63;1.52;;;28.10;60.40;;;;;;4940579;29;20428;-82
2022/06/12 08:26:53;;;;;;;1.70;1.55;;;27.80;60.80;;;;;;4957355;29;20163;-83
2022/06/12 08:29:18;;;;;;;2.63;1.52;;;27.70;63.30;;;;;;4940449;29;20028;-83
2022/06/12 08:31:51;;;;;;;3.58;1.40;;;27.70;62.40;;;;;;4940902;29;20028;-83
2022/06/12 08:34:22;;;;;;;2.42;1.60;;;28.30;62.50;;;;;;4958862;29;20077;-83
2022/06/12 08:36:51;;;;;;;3.70;1.40;;;28.70;60.70;;;;;;4958046;29;20035;-83
2022/06/12 08:39:16;;;;;;;;;;;29.00;60.70;;;;;;4958677;29;20035;-83
2022/06/12 08:42:05;;;;;;;2.25;1.60;;;29.20;57.10;;;;;;4941190;29;19906;-82
2022/06/12 08:44:37;;;;;;;9.95;2.80;;;29.30;56.70;;;;;;4957323;29;20034;-83
2022/06/12 08:47:25;;;;;;;1.58;1.30;;;29.20;55.30;;;;;;4939771;29;20106;-83
2022/06/12 08:49:58;;;;;;;3.58;1.92;;;29.10;55.60;;;;;;4957214;29;20034;-83
2022/06/12 08:53:10;;;;;;;1.90;1.80;;;29.20;54.00;;;;;;4957132;29;20399;-83
2022/06/12 08:55:51;;;;;;;2.60;1.48;;;28.70;55.30;;;;;;4905981;29;20035;-83
2022/06/12 08:58:39;;;;;;;3.20;1.48;;;29.00;56.10;;;;;;4939858;29;20054;-82
2022/06/12 09:01:05;;;;;;;2.10;1.50;;;29.20;54.40;;;;;;4957073;29;20137;-83
2022/06/12 09:03:37;;;;;;;3.83;1.33;;;29.70;54.60;;;;;;4939643;29;20031;-83
2022/06/12 09:06:17;;;;;;;3.55;1.98;;;30.00;54.40;;;;;;4956607;29;20439;-83
2022/06/12 09:08:51;;;;;;;3.38;1.67;;;30.00;53.60;;;;;;4939906;29;20037;-83
2022/06/12 09:11:23;;;;;;;4.43;1.60;;;29.70;53.70;;;;;;4957680;29;20035;-83
2022/06/12 09:14:26;;;;;;;1.52;1.42;;;29.50;51.90;;;;;;4940060;29;20034;-83
2022/06/12 09:16:58;;;;;;;2.65;1.60;;;29.80;54.30;;;;;;4956633;29;20223;-83
2022/06/12 09:19:49;;;;;;;1.73;1.23;;;30.20;52.20;;;;;;4956739;29;20472;-84
2022/06/12 09:22:25;;;;;;;2.28;1.40;;;30.20;51.20;;;;;;4956613;29;20027;-83
2022/06/12 09:24:53;;;;;;;3.35;1.50;;;30.60;50.70;;;;;;4956344;29;20142;-83
2022/06/12 09:27:31;;;;;;;2.35;1.95;;;30.60;50.10;;;;;;4956544;29;20054;-84
2022/06/12 09:30:02;;;;;;;4.43;1.80;;;29.70;50.30;;;;;;4939845;29;20130;-83
2022/06/12 09:32:55;;;;;;;2.33;1.45;;;29.70;52.30;;;;;;4939287;29;20490;-84
2022/06/12 09:35:49;;;;;;;4.25;2.15;;;29.80;52.20;;;;;;4939246;29;20050;-84
2022/06/12 09:38:28;;;;;;;4.85;1.60;;;30.00;50.00;;;;;;4956420;29;20034;-82
2022/06/12 09:41:17;;;;;;;4.25;1.75;;;30.10;49.50;;;;;;4939023;29;20035;-83
2022/06/12 09:44:12;;;;;;;2.58;1.30;;;30.00;50.00;;;;;;4956565;29;20103;-83
2022/06/12 09:46:45;;;;;;;2.25;1.48;;;30.00;50.10;;;;;;4956502;29;20023;-82
2022/06/12 09:49:42;;;;;;;3.90;2.00;;;30.30;50.00;;;;;;4956361;29;20033;-84
2022/06/12 09:52:29;;;;;;;2.33;1.33;;;30.20;49.20;;;;;;4939428;29;20114;-84
2022/06/12 09:55:19;;;;;;;1.88;1.50;;;30.40;50.70;;;;;;4956166;29;20019;-83
2022/06/12 09:57:54;;;;;;;2.78;1.55;;;30.70;50.90;;;;;;4955419;28;20031;-83
2022/06/12 10:00:31;;;;;;;1.50;1.35;;;31.00;48.10;;;;;;4938681;29;20028;-82
2022/06/12 10:03:06;;;;;;;3.08;1.40;;;31.10;46.60;;;;;;4938544;29;20101;-82
2022/06/12 10:05:38;;;;;;;2.05;1.13;;;31.50;47.70;;;;;;4955633;29;20034;-82
2022/06/12 10:08:26;;;;;;;3.95;1.55;;;31.60;45.80;;;;;;4956146;29;20110;-81
2022/06/12 10:11:02;;;;;;;1.27;1.17;;;31.60;46.50;;;;;;4956022;29;20039;-82
2022/06/12 10:13:53;;;;;;;3.80;1.10;;;32.10;44.30;;;;;;4955786;29;20031;-82
2022/06/12 10:16:26;;;;;;;1.13;1.13;;;32.00;46.10;;;;;;4956325;29;20035;-82
2022/06/12 10:18:59;;;;;;;3.13;1.67;;;32.00;42.70;;;;;;4938569;29;20062;-82
2022/06/12 10:21:26;;;;;;;3.08;1.27;;;31.90;44.00;;;;;;4956037;29;20468;-82
2022/06/12 10:23:52;;;;;;;4.10;1.13;;;32.00;43.50;;;;;;4955504;29;20019;-82
2022/06/12 10:26:24;;;;;;;3.08;1.10;;;32.00;44.60;;;;;;4955820;29;20145;-82
2022/06/12 10:29:04;;;;;;;4.25;1.85;;;32.60;43.40;;;;;;4955971;29;20106;-82
2022/06/12 10:31:34;;;;;;;1.92;1.45;;;32.50;43.30;;;;;;4938878;29;20158;-82
2022/06/12 10:34:22;;;;;;;1.77;1.20;;;32.20;44.20;;;;;;4955635;29;20098;-81
2022/06/12 10:36:48;;;;;;;4.63;1.83;;;32.20;43.30;;;;;;4955628;29;20464;-81
2022/06/12 10:39:17;;;;;;;1.27;1.20;;;32.40;43.30;;;;;;4938178;29;20046;-81
2022/06/12 10:41:59;;;;;;;1.60;1.30;;;32.40;43.50;;;;;;4955719;29;20159;-81
2022/06/12 10:44:44;;;;;;;2.15;1.10;;;33.10;41.90;;;;;;4955180;29;20035;-81
2022/06/12 10:47:23;;;;;;;2.35;1.25;;;33.10;41.00;;;;;;4955448;29;20035;-82
2022/06/12 10:50:19;;;;;;;1.27;1.00;;;33.20;40.60;;;;;;4955667;29;20103;-81
2022/06/12 10:53:17;;;;;;;1.35;0.70;;;33.40;38.50;;;;;;4955578;29;20019;-82
2022/06/12 10:55:51;;;;;;;1.88;1.20;;;34.00;39.30;;;;;;4955339;29;20372;-81
2022/06/12 10:58:32;;;;;;;0.80;0.80;;;34.30;38.50;;;;;;4938693;29;20078;-80
2022/06/12 11:01:11;;;;;;;5.40;1.20;;;34.60;37.60;;;;;;4955339;29;20054;-81
2022/06/12 11:03:37;;;;;;;1.55;1.02;;;34.60;38.00;;;;;;4938204;29;20391;-81
2022/06/12 11:06:21;;;;;;;1.10;0.93;;;34.30;37.30;;;;;;4955297;29;20027;-81
2022/06/12 11:08:55;;;;;;;1.38;0.90;;;33.90;37.80;;;;;;4956568;28;20035;-82
2022/06/12 11:11:26;;;;;;;1.88;0.90;;;34.20;38.40;;;;;;4959291;29;20059;-82
2022/06/12 11:14:05;;;;;;;2.90;1.10;;;34.80;37.70;;;;;;4958558;29;20031;-81
2022/06/12 11:16:52;;;;;;;1.48;0.80;;;34.70;37.60;;;;;;4958713;29;20495;-82
2022/06/12 11:19:43;;;;;;;2.85;1.40;;;34.80;37.50;;;;;;4959090;29;20027;-81
2022/06/12 11:22:42;;;;;;;2.72;1.00;;;34.80;36.50;;;;;;4958867;29;20023;-81
2022/06/12 11:25:35;;;;;;;1.23;0.88;;;33.80;38.70;;;;;;4958631;29;20051;-82
2022/06/12 11:28:39;;;;;;;3.75;1.30;;;33.80;38.20;;;;;;4958367;29;20094;-82
2022/06/12 11:31:20;;;;;;;2.47;1.00;;;34.00;38.70;;;;;;4941613;29;20031;-82
2022/06/12 11:33:57;;;;;;;2.63;1.05;;;34.60;38.40;;;;;;4958594;29;20115;-83
2022/06/12 11:36:27;;;;;;;1.42;1.10;;;34.90;37.70;;;;;;4958485;29;20031;-82
2022/06/12 11:39:07;;;;;;;3.55;0.98;;;34.90;37.90;;;;;;4958450;29;20057;-81
2022/06/12 11:41:54;;;;;;;2.60;1.00;;;35.00;37.90;;;;;;4958759;29;20067;-82
2022/06/12 11:44:52;;;;;;;1.60;0.73;;;35.40;36.20;;;;;;4958386;29;20034;-82
2022/06/12 11:47:29;;;;;;;4.05;1.00;;;35.80;34.70;;;;;;4940341;29;20400;-82
2022/06/12 11:50:12;;;;;;;1.58;0.80;;;35.60;34.70;;;;;;4958129;29;20162;-82
2022/06/12 11:52:49;;;;;;;0.75;0.75;;;35.60;34.90;;;;;;4941291;29;20078;-82
2022/06/12 11:55:21;;;;;;;2.13;0.80;;;35.90;35.20;;;;;;4940832;29;20091;-83
2022/06/12 11:57:58;;;;;;;1.35;0.90;;;35.80;33.70;;;;;;4958144;29;20042;-83
2022/06/12 12:00:40;;;;;;;3.30;0.82;;;35.20;33.80;;;;;;4958155;29;20062;-82
2022/06/12 12:03:12;;;;;;;2.10;1.10;;;34.70;36.30;;;;;;4958229;29;20038;-82
2022/06/12 12:05:49;;;;;;;1.15;0.90;;;33.30;37.60;;;;;;4958039;29;20051;-82
2022/06/12 12:08:53;;;;;;;1.27;0.90;;;32.70;38.60;;;;;;4957718;29;20479;-82
2022/06/12 12:11:30;;;;;;;3.40;1.02;;;32.70;39.20;;;;;;4957622;29;20318;-82
2022/06/12 12:14:01;;;;;;;2.35;1.00;;;32.60;40.10;;;;;;4940841;29;20456;-81
2022/06/12 12:16:48;;;;;;;4.05;1.00;;;32.90;41.50;;;;;;4957804;29;20094;-82
2022/06/12 12:19:32;;;;;;;0.60;0.60;;;33.70;38.80;;;;;;4957781;29;20055;-82
2022/06/12 12:22:07;;;;;;;2.60;1.02;;;34.30;38.50;;;;;;4940148;29;20083;-81
2022/06/12 12:24:54;;;;;;;1.83;1.30;;;34.30;38.00;;;;;;4957243;29;20035;-82
2022/06/12 12:27:31;;;;;;;2.33;1.00;;;34.80;38.40;;;;;;4957444;29;20435;-83
2022/06/12 12:29:59;;;;;;;1.25;1.00;;;35.30;38.30;;;;;;4940732;29;20031;-82
2022/06/12 12:32:25;;;;;;;2.83;0.80;;;35.20;38.60;;;;;;4957696;29;20078;-82
2022/06/12 12:34:55;;;;;;;1.92;1.05;;;34.50;37.30;;;;;;4957434;29;20031;-82
2022/06/12 12:43:02;;;;;;;2.75;1.10;;;31.20;43.00;;;;;;4957082;29;20033;-81
2022/06/12 12:45:32;;;;;;;4.07;1.25;;;31.80;42.80;;;;;;4940248;29;20033;-81
2022/06/12 12:48:07;;;;;;;1.42;0.90;;;33.00;40.70;;;;;;4957718;29;20057;-82
2022/06/12 12:50:48;;;;;;;0.93;0.93;;;34.10;39.80;;;;;;4957233;29;20027;-82
2022/06/12 12:53:30;;;;;;;1.05;0.80;;;35.10;37.10;;;;;;4940714;29;20046;-82
2022/06/12 12:56:12;;;;;;;1.88;0.90;;;35.60;36.60;;;;;;4940340;29;20052;-82
2022/06/12 12:58:54;;;;;;;1.95;0.90;;;35.90;35.30;;;;;;4957150;29;20035;-82
2022/06/12 13:01:25;;;;;;;2.55;0.73;;;36.10;36.40;;;;;;4957278;29;20035;-81
2022/06/12 13:03:56;;;;;;;1.15;0.88;;;36.30;35.80;;;;;;4939649;29;20539;-81
2022/06/12 13:06:40;;;;;;;2.53;1.00;;;36.40;36.00;;;;;;4956921;29;20102;-82
2022/06/12 13:09:30;;;;;;;1.00;0.95;;;36.10;36.10;;;;;;4939601;29;20456;-82
2022/06/12 13:12:04;;;;;;;1.33;0.90;;;36.30;36.40;;;;;;4957020;29;20026;-82
2022/06/12 13:15:09;;;;;;;0.80;0.80;;;35.60;36.30;;;;;;4957074;29;20059;-82
2022/06/12 13:18:12;;;;;;;1.63;0.90;;;35.80;36.40;;;;;;4956623;29;20028;-82
2022/06/12 13:21:11;;;;;;;2.55;0.90;;;35.50;36.30;;;;;;4939355;29;20035;-82
2022/06/12 13:23:57;;;;;;;2.25;1.17;;;34.90;37.20;;;;;;4956546;29;20027;-82
2022/06/12 13:26:25;;;;;;;1.27;1.02;;;35.20;37.10;;;;;;4939299;29;20053;-82
2022/06/12 13:29:00;;;;;;;1.08;0.70;;;35.80;38.10;;;;;;4939189;29;20365;-81
2022/06/12 13:31:33;;;;;;;2.75;1.60;;;36.20;36.80;;;;;;4956463;28;20027;-82
2022/06/12 13:34:01;;;;;;;1.65;1.10;;;36.20;35.50;;;;;;4939354;29;20027;-81
2022/06/12 13:36:32;;;;;;;0.97;0.97;;;36.50;35.80;;;;;;4939263;29;20505;-81
2022/06/12 13:39:18;;;;;;;2.42;0.82;;;36.10;36.80;;;;;;4956143;29;20107;-82
2022/06/12 13:41:47;;;;;;;1.02;0.90;;;36.60;35.50;;;;;;4939112;29;20467;-82
2022/06/12 13:44:23;;;;;;;2.20;0.88;;;37.30;35.60;;;;;;4956033;29;20024;-81